createdAt,value
2024-01-05T00:00:55.013Z,5.39
2024-01-05T00:03:40.900Z,5.37
2024-01-05T00:06:14.748Z,5.34
2024-01-05T00:08:48.472Z,5.29
2024-01-05T00:11:23.099Z,5.26
2024-01-05T00:13:56.803Z,5.24
2024-01-05T00:16:30.611Z,5.20
2024-01-05T00:19:04.353Z,5.18
2024-01-05T00:21:38.145Z,5.13
2024-01-05T00:24:12.330Z,5.09
2024-01-05T00:26:46.582Z,5.08
2024-01-05T00:29:20.348Z,5.06
2024-01-05T00:31:54.145Z,5.05
2024-01-05T00:34:27.872Z,5.03
2024-01-05T00:37:01.446Z,5.01
2024-01-05T00:39:35.113Z,4.99
2024-01-05T00:42:10.057Z,4.98
2024-01-05T00:44:43.821Z,4.97
2024-01-05T00:47:17.724Z,4.97
2024-01-05T00:49:51.684Z,4.96
2024-01-05T00:52:25.402Z,4.96
2024-01-05T00:54:58.973Z,4.95
2024-01-05T00:57:33.195Z,4.96
2024-01-05T01:00:10.801Z,4.97
2024-01-05T01:02:44.539Z,4.97
2024-01-05T01:05:19.000Z,4.99
2024-01-05T01:07:52.848Z,5.00
2024-01-05T01:10:26.476Z,5.01
2024-01-05T01:13:00.328Z,5.02
2024-01-05T01:15:34.370Z,5.02
2024-01-05T01:18:09.027Z,5.03
2024-01-05T01:20:42.603Z,5.03
2024-01-05T01:23:15.935Z,5.02
2024-01-05T01:25:49.666Z,5.02
2024-01-05T01:28:23.367Z,5.01
2024-01-05T01:30:56.861Z,5.02
2024-01-05T01:33:30.758Z,5.00
2024-01-05T01:36:04.538Z,4.97
2024-01-05T01:38:37.934Z,4.98
2024-01-05T01:41:12.010Z,4.97
2024-01-05T01:43:53.274Z,4.97
2024-01-05T01:46:28.385Z,4.96
2024-01-05T01:49:02.466Z,4.95
2024-01-05T01:51:37.207Z,4.95
2024-01-05T01:54:11.594Z,4.94
2024-01-05T01:56:47.470Z,4.93
2024-01-05T01:59:21.150Z,4.92
2024-01-05T02:01:55.712Z,4.92
2024-01-05T02:04:31.515Z,4.90
2024-01-05T02:07:06.195Z,4.91
2024-01-05T02:09:41.586Z,4.89
2024-01-05T02:12:15.671Z,4.89
2024-01-05T02:14:49.555Z,4.89
2024-01-05T02:17:36.883Z,4.90
2024-01-05T02:20:12.706Z,4.90
2024-01-05T02:22:52.473Z,4.90
2024-01-05T02:25:26.357Z,4.90
2024-01-05T02:28:00.039Z,4.90
2024-01-05T02:30:34.166Z,4.89
2024-01-05T02:33:09.221Z,4.88
2024-01-05T02:35:42.930Z,4.86
2024-01-05T02:38:16.405Z,4.84
2024-01-05T02:40:50.035Z,4.80
2024-01-05T02:43:23.642Z,4.77
2024-01-05T02:45:57.303Z,4.74
2024-01-05T02:48:31.352Z,4.69
2024-01-05T02:51:05.271Z,4.66
2024-01-05T02:53:38.972Z,4.63
2024-01-05T02:56:20.565Z,4.61
2024-01-05T02:58:54.144Z,4.58
2024-01-05T03:01:28.001Z,4.55
2024-01-05T03:04:02.763Z,4.52
2024-01-05T03:06:36.680Z,4.48
2024-01-05T03:09:10.506Z,4.45
2024-01-05T03:11:43.910Z,4.43
2024-01-05T03:14:17.416Z,4.39
2024-01-05T03:16:51.065Z,4.37
2024-01-05T03:19:25.219Z,4.37
2024-01-05T03:21:59.329Z,4.36
2024-01-05T03:24:33.190Z,4.36
2024-01-05T03:27:07.238Z,4.35
2024-01-05T03:29:41.334Z,4.34
2024-01-05T03:32:14.794Z,4.34
2024-01-05T03:34:48.339Z,4.33
2024-01-05T03:37:21.919Z,4.35
2024-01-05T03:39:56.019Z,4.35
2024-01-05T03:42:29.929Z,4.34
2024-01-05T03:45:03.562Z,4.33
2024-01-05T03:47:37.217Z,4.32
2024-01-05T03:50:13.150Z,4.30
2024-01-05T03:52:46.563Z,4.29
2024-01-05T03:55:20.562Z,4.26
2024-01-05T03:57:54.525Z,4.23
2024-01-05T04:00:28.335Z,4.20
2024-01-05T04:03:02.412Z,4.20
2024-01-05T04:05:37.005Z,4.21
2024-01-05T04:08:11.459Z,4.22
2024-01-05T04:10:45.232Z,4.23
2024-01-05T04:13:19.068Z,4.24
2024-01-05T04:15:52.251Z,4.25
2024-01-05T04:18:26.459Z,4.25
2024-01-05T04:21:00.338Z,4.25
2024-01-05T04:23:33.839Z,4.26
2024-01-05T04:26:08.120Z,4.27
2024-01-05T04:28:41.873Z,4.25
2024-01-05T04:31:15.639Z,4.24
2024-01-05T04:33:49.491Z,4.23
2024-01-05T04:36:23.119Z,4.23
2024-01-05T04:38:56.335Z,4.23
2024-01-05T04:41:30.257Z,4.22
2024-01-05T04:44:04.217Z,4.22
2024-01-05T04:46:37.901Z,4.22
2024-01-05T04:49:11.702Z,4.23
2024-01-05T04:51:45.692Z,4.23
2024-01-05T04:54:18.900Z,4.24
2024-01-05T04:56:52.493Z,4.23
2024-01-05T04:59:27.145Z,4.24
2024-01-05T05:02:01.332Z,4.24
2024-01-05T05:04:35.032Z,4.24
2024-01-05T05:07:09.375Z,4.24
2024-01-05T05:09:43.196Z,4.24
2024-01-05T05:12:16.914Z,4.23
2024-01-05T05:14:50.297Z,4.22
2024-01-05T05:17:23.970Z,4.20
2024-01-05T05:19:57.688Z,4.19
2024-01-05T05:22:31.363Z,4.18
2024-01-05T05:25:07.503Z,4.15
2024-01-05T05:27:41.893Z,4.15
2024-01-05T05:30:17.456Z,4.14
2024-01-05T05:32:51.152Z,4.13
2024-01-05T05:35:24.880Z,4.10
2024-01-05T05:37:58.509Z,4.10
2024-01-05T05:40:32.817Z,4.09
2024-01-05T05:43:06.707Z,4.08
2024-01-05T05:45:40.654Z,4.07
2024-01-05T05:48:15.664Z,4.07
2024-01-05T05:50:49.445Z,4.05
2024-01-05T05:53:23.152Z,4.05
2024-01-05T05:55:56.323Z,4.06
2024-01-05T05:58:29.915Z,4.06
2024-01-05T06:01:03.656Z,4.06
2024-01-05T06:03:37.528Z,4.06
2024-01-05T06:06:20.743Z,4.07
2024-01-05T06:08:54.819Z,4.08
2024-01-05T06:11:28.694Z,4.09
2024-01-05T06:14:05.529Z,4.11
2024-01-05T06:16:38.763Z,4.12
2024-01-05T06:19:12.571Z,4.15
2024-01-05T06:21:47.161Z,4.16
2024-01-05T06:24:20.497Z,4.20
2024-01-05T06:26:53.963Z,4.23
2024-01-05T06:29:27.667Z,4.24
2024-01-05T06:32:01.089Z,4.30
2024-01-05T06:34:34.721Z,4.33
2024-01-05T06:37:08.863Z,4.37
2024-01-05T06:39:42.619Z,4.42
2024-01-05T06:42:16.412Z,4.45
2024-01-05T06:44:50.515Z,4.50
2024-01-05T06:47:24.205Z,4.57
2024-01-05T06:49:58.355Z,4.66
2024-01-05T06:52:32.163Z,4.76
2024-01-05T06:55:06.115Z,4.84
2024-01-05T06:57:39.834Z,4.94
2024-01-05T07:00:15.527Z,5.02
2024-01-05T07:02:49.204Z,5.10
2024-01-05T07:05:22.959Z,5.18
2024-01-05T07:07:56.984Z,5.24
2024-01-05T07:10:30.947Z,5.33
2024-01-05T07:13:08.016Z,5.41
2024-01-05T07:15:41.932Z,5.51
2024-01-05T07:18:15.711Z,5.57
2024-01-05T07:20:49.882Z,5.65
2024-01-05T07:23:23.262Z,5.74
2024-01-05T07:25:56.646Z,5.82
2024-01-05T07:28:30.386Z,5.89
2024-01-05T07:31:07.437Z,5.97
2024-01-05T07:33:41.934Z,6.06
2024-01-05T07:36:15.286Z,6.14
2024-01-05T07:38:48.820Z,6.23
2024-01-05T07:41:22.520Z,6.32
2024-01-05T07:43:56.083Z,6.42
2024-01-05T07:46:29.751Z,6.52
2024-01-05T07:49:03.442Z,6.60
2024-01-05T07:51:39.426Z,6.68
2024-01-05T07:54:14.544Z,6.77
2024-01-05T07:56:48.386Z,6.87
2024-01-05T07:59:22.184Z,6.96
2024-01-05T08:01:57.134Z,7.05
2024-01-05T08:04:30.971Z,7.15
2024-01-05T08:07:04.839Z,7.25
2024-01-05T08:09:38.630Z,7.38
2024-01-05T08:12:15.541Z,7.48
2024-01-05T08:14:50.583Z,7.58
2024-01-05T08:17:24.222Z,7.71
2024-01-05T08:19:57.900Z,7.82
2024-01-05T08:22:31.691Z,7.93
2024-01-05T08:25:05.640Z,8.04
2024-01-05T08:27:39.668Z,8.17
2024-01-05T08:30:17.058Z,8.29
2024-01-05T08:32:56.461Z,8.42
2024-01-05T08:35:31.425Z,8.53
2024-01-05T08:38:05.541Z,8.66
2024-01-05T08:40:39.292Z,8.80
2024-01-05T08:43:12.872Z,8.95
2024-01-05T08:45:47.099Z,9.11
2024-01-05T08:48:20.786Z,9.29
2024-01-05T08:50:54.959Z,9.45
2024-01-05T08:53:28.863Z,9.62
2024-01-05T08:56:02.600Z,9.78
2024-01-05T08:58:35.900Z,9.95
2024-01-05T09:01:09.649Z,10.12
2024-01-05T09:03:44.230Z,10.26
2024-01-05T09:06:18.313Z,10.38
2024-01-05T09:08:52.102Z,10.51
2024-01-05T09:11:25.824Z,10.65
2024-01-05T09:13:59.518Z,10.79
2024-01-05T09:16:32.570Z,10.91
2024-01-05T09:19:06.258Z,11.05
2024-01-05T09:21:40.451Z,11.15
2024-01-05T09:24:14.390Z,11.26
2024-01-05T09:26:48.038Z,11.37
2024-01-05T09:29:22.022Z,11.47
2024-01-05T09:31:55.456Z,11.53
2024-01-05T09:34:29.377Z,11.59
2024-01-05T09:37:03.172Z,11.67
2024-01-05T09:39:36.889Z,11.73
2024-01-05T09:42:12.359Z,11.81
2024-01-05T09:44:47.732Z,11.88
2024-01-05T09:47:22.477Z,11.94
2024-01-05T09:49:56.445Z,12.04
2024-01-05T09:52:30.197Z,12.12
2024-01-05T09:55:03.834Z,12.20
2024-01-05T09:57:38.936Z,12.26
2024-01-05T10:00:19.598Z,12.33
2024-01-05T10:02:59.420Z,12.41
2024-01-05T10:05:34.993Z,12.49
2024-01-05T10:08:12.460Z,12.58
2024-01-05T10:10:57.197Z,12.65
2024-01-05T10:13:30.725Z,12.74
2024-01-05T10:16:04.760Z,12.82
2024-01-05T10:18:38.195Z,12.90
2024-01-05T10:21:14.595Z,12.95
2024-01-05T10:23:48.171Z,13.00
2024-01-05T10:26:22.735Z,13.08
2024-01-05T10:28:56.175Z,13.14
2024-01-05T10:31:29.643Z,13.20
2024-01-05T10:34:03.568Z,13.28
2024-01-05T10:36:37.419Z,13.32
2024-01-05T10:39:11.596Z,13.38
2024-01-05T10:41:48.448Z,13.46
2024-01-05T10:44:22.653Z,13.52
2024-01-05T10:46:56.803Z,13.56
2024-01-05T10:49:32.055Z,13.59
2024-01-05T10:52:06.173Z,13.63
2024-01-05T10:54:39.470Z,13.68
2024-01-05T10:57:14.622Z,13.73
2024-01-05T10:59:52.095Z,13.79
2024-01-05T11:02:27.405Z,13.87
2024-01-05T11:05:09.883Z,13.93
2024-01-05T11:07:45.176Z,13.99
2024-01-05T11:10:30.943Z,14.04
2024-01-05T11:13:26.054Z,14.07
2024-01-05T11:16:18.288Z,14.12
2024-01-05T11:19:19.712Z,14.18
2024-01-05T11:21:57.812Z,14.23
2024-01-05T11:24:31.424Z,14.27
2024-01-05T11:27:31.833Z,14.30
2024-01-05T11:30:06.638Z,14.34
2024-01-05T11:32:44.084Z,14.37
2024-01-05T11:35:45.451Z,14.39
2024-01-05T11:38:43.826Z,14.43
2024-01-05T11:41:24.539Z,14.44
2024-01-05T11:43:58.400Z,14.47
2024-01-05T11:47:02.508Z,14.49
2024-01-05T11:49:43.797Z,14.50
2024-01-05T11:52:20.582Z,14.53
2024-01-05T11:55:13.490Z,14.56
2024-01-05T11:57:49.330Z,14.58
2024-01-05T12:00:23.498Z,14.59
2024-01-05T12:03:04.624Z,14.61
2024-01-05T12:05:38.549Z,14.66
2024-01-05T12:08:13.403Z,14.69
2024-01-05T12:10:47.461Z,14.73
2024-01-05T12:13:26.646Z,14.75
2024-01-05T12:16:02.409Z,14.77
2024-01-05T12:18:45.923Z,14.80
2024-01-05T12:21:21.760Z,14.83
2024-01-05T12:23:57.452Z,14.85
2024-01-05T12:26:32.692Z,14.89
2024-01-05T12:29:06.870Z,14.92
2024-01-05T12:31:43.183Z,14.92
2024-01-05T12:34:18.884Z,14.93
2024-01-05T12:36:52.374Z,14.96
2024-01-05T12:39:27.613Z,14.95
2024-01-05T12:42:01.794Z,14.96
2024-01-05T12:44:36.578Z,14.94
2024-01-05T12:47:10.019Z,14.94
2024-01-05T12:49:45.227Z,14.93
2024-01-05T12:52:18.990Z,14.93
2024-01-05T12:54:53.304Z,14.94
2024-01-05T12:57:27.629Z,14.93
2024-01-05T13:00:07.134Z,14.91
2024-01-05T13:02:42.978Z,14.88
2024-01-05T13:05:35.885Z,14.86
2024-01-05T13:08:10.397Z,14.82
2024-01-05T13:10:44.095Z,14.81
2024-01-05T13:13:19.015Z,14.78
2024-01-05T13:15:52.620Z,14.74
2024-01-05T13:18:26.424Z,14.71
2024-01-05T13:21:00.282Z,14.67
2024-01-05T13:23:34.331Z,14.61
2024-01-05T13:26:08.864Z,14.60
2024-01-05T13:28:42.978Z,14.56
2024-01-05T13:31:17.138Z,14.51
2024-01-05T13:33:50.882Z,14.47
2024-01-05T13:36:24.568Z,14.43
2024-01-05T13:38:57.704Z,14.38
2024-01-05T13:41:31.006Z,14.30
2024-01-05T13:44:04.738Z,14.26
2024-01-05T13:46:38.483Z,14.20
2024-01-05T13:49:12.013Z,14.13
2024-01-05T13:51:45.562Z,14.07
2024-01-05T13:54:19.333Z,13.99
2024-01-05T13:56:52.681Z,13.92
2024-01-05T13:59:26.484Z,13.86
2024-01-05T14:01:59.958Z,13.79
2024-01-05T14:04:33.687Z,13.72
2024-01-05T14:07:07.376Z,13.67
2024-01-05T14:09:40.411Z,13.60
2024-01-05T14:12:14.536Z,13.54
2024-01-05T14:14:48.174Z,13.46
2024-01-05T14:17:23.899Z,13.40
2024-01-05T14:19:57.557Z,13.31
2024-01-05T14:22:31.353Z,13.26
2024-01-05T14:25:05.977Z,13.18
2024-01-05T14:27:39.317Z,13.10
2024-01-05T14:30:16.602Z,13.01
2024-01-05T14:32:50.471Z,12.93
2024-01-05T14:35:23.962Z,12.86
2024-01-05T14:37:57.512Z,12.79
2024-01-05T14:40:31.138Z,12.71
2024-01-05T14:43:04.835Z,12.62
2024-01-05T14:45:38.596Z,12.54
2024-01-05T14:48:12.971Z,12.44
2024-01-05T14:50:47.073Z,12.34
2024-01-05T14:53:20.599Z,12.25
2024-01-05T14:55:54.280Z,12.16
2024-01-05T14:58:27.988Z,12.08
2024-01-05T15:01:01.981Z,12.02
2024-01-05T15:03:38.720Z,11.94
2024-01-05T15:06:13.794Z,11.86
2024-01-05T15:08:47.495Z,11.78
2024-01-05T15:11:23.302Z,11.69
2024-01-05T15:13:56.992Z,11.61
2024-01-05T15:16:31.069Z,11.52
2024-01-05T15:19:07.129Z,11.45
2024-01-05T15:21:41.101Z,11.37
2024-01-05T15:24:14.778Z,11.28
2024-01-05T15:26:49.009Z,11.20
2024-01-05T15:29:22.444Z,11.11
2024-01-05T15:31:57.235Z,11.02
2024-01-05T15:34:31.338Z,10.91
2024-01-05T15:37:05.270Z,10.81
2024-01-05T15:39:39.716Z,10.71
2024-01-05T15:42:14.334Z,10.61
2024-01-05T15:44:48.032Z,10.51
2024-01-05T15:47:22.479Z,10.44
2024-01-05T15:49:56.337Z,10.35
2024-01-05T15:52:30.258Z,10.26
2024-01-05T15:55:03.245Z,10.20
2024-01-05T15:57:37.080Z,10.11
2024-01-05T16:00:13.975Z,10.05
2024-01-05T16:02:47.655Z,9.96
2024-01-05T16:05:21.707Z,9.91
2024-01-05T16:07:55.540Z,9.82
2024-01-05T16:10:29.581Z,9.77
2024-01-05T16:13:03.242Z,9.71
2024-01-05T16:15:37.060Z,9.63
2024-01-05T16:18:11.232Z,9.54
2024-01-05T16:20:46.945Z,9.47
2024-01-05T16:23:20.828Z,9.38
2024-01-05T16:25:54.455Z,9.30
2024-01-05T16:28:28.435Z,9.22
2024-01-05T16:31:02.329Z,9.15
2024-01-05T16:33:37.006Z,9.07
2024-01-05T16:36:13.886Z,8.98
2024-01-05T16:38:49.661Z,8.90
2024-01-05T16:41:25.785Z,8.84
2024-01-05T16:44:00.348Z,8.77
2024-01-05T16:46:34.122Z,8.72
2024-01-05T16:49:08.502Z,8.65
2024-01-05T16:51:42.283Z,8.59
2024-01-05T16:54:15.906Z,8.54
2024-01-05T16:56:54.658Z,8.46
2024-01-05T16:59:29.254Z,8.39
2024-01-05T17:02:02.965Z,8.31
2024-01-05T17:04:36.633Z,8.24
2024-01-05T17:07:10.604Z,8.17
2024-01-05T17:09:44.990Z,8.12
2024-01-05T17:12:20.140Z,8.05
2024-01-05T17:14:53.910Z,7.98
2024-01-05T17:17:27.666Z,7.89
2024-01-05T17:20:16.346Z,7.82
2024-01-05T17:22:55.105Z,7.73
2024-01-05T17:25:29.168Z,7.67
2024-01-05T17:28:02.474Z,7.61
2024-01-05T17:30:36.703Z,7.56
2024-01-05T17:33:11.200Z,7.48
2024-01-05T17:35:45.585Z,7.41
2024-01-05T17:38:19.252Z,7.35
2024-01-05T17:40:53.059Z,7.29
2024-01-05T17:43:26.649Z,7.24
2024-01-05T17:46:04.139Z,7.17
2024-01-05T17:48:37.901Z,7.11
2024-01-05T17:51:11.621Z,7.05
2024-01-05T17:53:45.997Z,6.98
2024-01-05T17:56:27.009Z,6.92
2024-01-05T17:59:00.738Z,6.86
2024-01-05T18:01:34.916Z,6.79
2024-01-05T18:04:08.645Z,6.72
2024-01-05T18:06:42.646Z,6.65
2024-01-05T18:09:16.290Z,6.58
2024-01-05T18:11:49.622Z,6.51
2024-01-05T18:14:23.173Z,6.44
2024-01-05T18:16:56.615Z,6.38
2024-01-05T18:19:30.401Z,6.31
2024-01-05T18:22:04.468Z,6.27
2024-01-05T18:24:38.400Z,6.19
2024-01-05T18:27:12.058Z,6.14
2024-01-05T18:29:45.447Z,6.08
2024-01-05T18:32:19.024Z,6.00
2024-01-05T18:34:53.045Z,5.96
2024-01-05T18:37:26.420Z,5.92
2024-01-05T18:39:59.881Z,5.85
2024-01-05T18:42:33.661Z,5.80
2024-01-05T18:45:09.286Z,5.75
2024-01-05T18:47:42.921Z,5.68
2024-01-05T18:50:16.541Z,5.62
2024-01-05T18:52:50.378Z,5.55
2024-01-05T18:55:23.890Z,5.50
2024-01-05T18:57:57.426Z,5.44
2024-01-05T19:00:31.761Z,5.38
2024-01-05T19:03:05.797Z,5.31
2024-01-05T19:05:39.843Z,5.26
2024-01-05T19:08:17.073Z,5.23
2024-01-05T19:10:51.474Z,5.17
2024-01-05T19:13:25.590Z,5.12
2024-01-05T19:15:59.466Z,5.05
2024-01-05T19:18:34.634Z,5.01
2024-01-05T19:21:09.796Z,4.95
2024-01-05T19:23:43.650Z,4.90
2024-01-05T19:26:21.665Z,4.86
2024-01-05T19:28:55.362Z,4.80
2024-01-05T19:31:29.090Z,4.77
2024-01-05T19:34:03.021Z,4.73
2024-01-05T19:36:38.010Z,4.67
2024-01-05T19:39:12.327Z,4.63
2024-01-05T19:41:51.525Z,4.56
2024-01-05T19:44:25.204Z,4.55
2024-01-05T19:46:58.825Z,4.49
2024-01-05T19:49:35.331Z,4.44
2024-01-05T19:52:10.001Z,4.42
2024-01-05T19:54:43.528Z,4.36
2024-01-05T19:57:17.513Z,4.32
2024-01-05T19:59:51.462Z,4.29
2024-01-05T20:02:25.105Z,4.25
2024-01-05T20:05:00.318Z,4.19
2024-01-05T20:07:34.915Z,4.16
2024-01-05T20:10:10.309Z,4.10
2024-01-05T20:12:47.469Z,4.06
2024-01-05T20:15:21.425Z,4.00
2024-01-05T20:17:55.230Z,3.95
2024-01-05T20:20:28.716Z,3.94
2024-01-05T20:23:03.289Z,3.92
2024-01-05T20:25:36.798Z,3.87
2024-01-05T20:28:11.447Z,3.85
2024-01-05T20:30:45.321Z,3.80
2024-01-05T20:33:19.016Z,3.79
